Glenmont, NY

5:28 AM EDT on August 30, 2016 (GMT -0400)
University At Albany | | Change Station

Elev 295 ft 42.69 °N, 73.82 °W | Updated 4 days ago

Clear
Clear
60 °F
Feels Like 60 °F
N
1
Wind Variable Wind from WNW
Gusts mph

Today
High -- | Low -- °F
--% Chance of Precip.
Yesterday
High -- | Low -- °F
Precip. -- in
Pressure 30.18 in
Visibility 10.0 miles
Clouds Clear
Dew Point 57 °F
Humidity 88%
Rainfall in
Snow Depth Not available.
6:18 AM 7:31 PM
Waning Crescent, 4% visible
METAR KALB 300851Z 00000KT 10SM CLR 14/13 A3019 RMK AO2 SLP220 T01440128 53001
Pressure 30.18 in
Visibility 10.0 miles
Clouds Clear
Dew Point 57 °F
Humidity 88%
Rainfall in
Snow Depth Not available.
6:18 AM 7:31 PM
Waning Crescent, 4% visible
METAR KALB 300851Z 00000KT 10SM CLR 14/13 A3019 RMK AO2 SLP220 T01440128 53001

10-Day Weather Forecast

Almanac

Astronomy

Aug. 30, 2016 Rise Set
Actual Time
Civil Twilight
Nautical Twilight
Astronomical Twilight
Moon
Length of Visible Light
Length of Day
Tomorrow will be .
, % of the Moon is Illuminated

Today's Extremes

State Highs State Lows

Community

WunderPhotos

Upload Photos

1,935,795 photos uploaded!

WunderBlog® & News

Nearby

Air Quality

  Air Quality AQ Index Pollutant
Not available.

Snow Depth

Station Depth Elevation

Earthquake Activity

City Distance Mag. Time & Date
Minimum magnitude displayed is 2.5.

Coastal Water Temperatures

Place Temperature

Stations

Nearby Weather Stations

Station Location Temp. Windchill Dew Point Humidity Wind Precip. Elev Updated Type
                   

Watches & Warnings

There are currently no watches in effect.